createdAt,value
2022-10-30T00:08:26.623Z,17.60
2022-10-30T00:18:32.126Z,17.60
2022-10-30T00:28:39.295Z,17.58
2022-10-30T00:38:46.345Z,17.58
2022-10-30T00:48:53.851Z,17.60
2022-10-30T00:59:00.646Z,17.60
2022-10-30T01:09:07.964Z,17.55
2022-10-30T01:19:15.302Z,17.54
2022-10-30T01:29:22.827Z,17.54
2022-10-30T01:39:28.875Z,17.54
2022-10-30T01:49:36.577Z,17.54
2022-10-30T01:59:41.995Z,17.54
2022-10-30T02:09:50.046Z,17.54
2022-10-30T02:19:55.764Z,17.54
2022-10-30T02:30:03.246Z,17.52
2022-10-30T02:40:09.163Z,17.52
2022-10-30T02:50:16.788Z,17.52
2022-10-30T03:00:22.407Z,17.52
2022-10-30T03:10:30.160Z,17.55
2022-10-30T03:20:35.951Z,17.55
2022-10-30T03:30:43.651Z,17.54
2022-10-30T03:40:49.486Z,17.54
2022-10-30T03:50:56.973Z,17.54
2022-10-30T04:01:02.806Z,17.52
2022-10-30T04:11:10.602Z,17.52
2022-10-30T04:21:16.489Z,17.52
2022-10-30T04:31:24.509Z,17.45
2022-10-30T04:41:30.103Z,17.48
2022-10-30T04:51:37.794Z,17.48
2022-10-30T05:01:43.629Z,17.48
2022-10-30T05:11:53.846Z,17.48
2022-10-30T05:22:02.012Z,17.48
2022-10-30T05:32:09.618Z,17.50
2022-10-30T05:42:15.448Z,17.46
2022-10-30T05:52:23.145Z,17.46
2022-10-30T06:02:28.891Z,17.48
2022-10-30T06:12:34.657Z,17.48
2022-10-30T06:22:40.160Z,17.48
2022-10-30T06:32:45.472Z,17.42
2022-10-30T06:42:51.442Z,17.52
2022-10-30T06:52:57.464Z,17.52
2022-10-30T07:03:03.623Z,17.63
2022-10-30T07:13:11.606Z,17.63
2022-10-30T07:23:18.241Z,17.75
2022-10-30T07:33:24.511Z,17.80
2022-10-30T07:43:30.659Z,17.80
2022-10-30T07:53:38.052Z,17.86
2022-10-30T08:03:44.260Z,18.05
2022-10-30T08:13:51.749Z,18.22
2022-10-30T08:23:57.674Z,18.27
2022-10-30T08:34:04.978Z,18.41
2022-10-30T08:44:12.006Z,18.77
2022-10-30T08:54:17.847Z,19.10
2022-10-30T09:04:23.614Z,19.10
2022-10-30T09:14:29.598Z,19.34
2022-10-30T09:24:35.502Z,19.81
2022-10-30T09:34:41.140Z,19.81
2022-10-30T09:44:52.459Z,20.49
2022-10-30T09:54:58.199Z,20.70
2022-10-30T10:05:03.881Z,21.05
2022-10-30T10:15:10.071Z,21.39
2022-10-30T10:25:17.358Z,21.39
2022-10-30T10:35:23.103Z,21.63
2022-10-30T10:45:29.248Z,22.28
2022-10-30T10:55:35.404Z,22.61
2022-10-30T11:05:41.345Z,22.98
2022-10-30T11:15:47.240Z,23.19
2022-10-30T11:25:53.060Z,23.19
2022-10-30T11:35:59.243Z,23.63
2022-10-30T11:46:05.111Z,23.43
2022-10-30T11:56:10.780Z,23.27
2022-10-30T12:06:16.783Z,23.31
2022-10-30T12:16:22.208Z,23.43
2022-10-30T12:26:28.093Z,23.62
2022-10-30T12:36:34.173Z,23.76
2022-10-30T12:46:40.272Z,24.01
2022-10-30T12:56:46.525Z,24.21
2022-10-30T13:06:52.711Z,24.38
2022-10-30T13:16:58.802Z,24.46
2022-10-30T13:27:06.172Z,24.52
2022-10-30T13:37:13.709Z,24.66
2022-10-30T13:47:22.177Z,24.70
2022-10-30T13:57:28.478Z,24.71
2022-10-30T14:07:36.740Z,24.73
2022-10-30T14:17:42.555Z,24.73
2022-10-30T14:27:50.053Z,24.67
2022-10-30T14:37:56.078Z,24.32
2022-10-30T14:48:03.726Z,23.78
2022-10-30T14:58:09.297Z,23.27
2022-10-30T15:08:16.825Z,23.02
2022-10-30T15:18:25.608Z,22.75
2022-10-30T15:28:35.472Z,22.75
2022-10-30T15:38:41.891Z,22.27
2022-10-30T15:48:49.567Z,21.91
2022-10-30T15:58:55.234Z,21.91
2022-10-30T16:09:02.496Z,21.51
2022-10-30T16:19:09.519Z,21.51
2022-10-30T16:29:16.669Z,21.20
2022-10-30T16:39:23.506Z,20.88
2022-10-30T16:49:30.453Z,20.88
2022-10-30T16:59:37.663Z,20.50
2022-10-30T17:09:44.818Z,20.21
2022-10-30T17:19:51.756Z,20.21
2022-10-30T17:29:59.133Z,20.00
2022-10-30T17:40:06.177Z,20.00
2022-10-30T17:50:13.941Z,19.85
2022-10-30T18:00:19.818Z,19.66
2022-10-30T18:10:25.491Z,19.50
2022-10-30T18:20:31.979Z,19.50
2022-10-30T18:30:39.080Z,19.38
2022-10-30T18:40:45.820Z,19.23
2022-10-30T18:50:52.741Z,19.14
2022-10-30T19:01:11.872Z,19.04
2022-10-30T19:11:12.317Z,19.04
2022-10-30T19:21:19.019Z,19.09
2022-10-30T19:31:25.003Z,19.09
2022-10-30T19:41:32.187Z,19.09
2022-10-30T19:51:39.231Z,19.05
2022-10-30T20:01:45.070Z,19.05
2022-10-30T20:11:50.645Z,19.03
2022-10-30T20:21:56.512Z,18.89
2022-10-30T20:32:02.455Z,18.80
2022-10-30T20:42:07.792Z,18.80
2022-10-30T20:52:13.607Z,18.66
2022-10-30T21:02:19.428Z,18.66
2022-10-30T21:12:25.529Z,18.70
2022-10-30T21:22:31.252Z,18.64
2022-10-30T21:32:37.223Z,18.59
2022-10-30T21:42:42.831Z,18.46
2022-10-30T21:52:48.230Z,18.46
2022-10-30T22:02:53.883Z,18.30
2022-10-30T22:12:59.501Z,18.25
2022-10-30T22:23:05.193Z,18.25
2022-10-30T22:33:10.857Z,18.22
2022-10-30T22:53:21.838Z,18.09
2022-10-30T23:03:27.293Z,18.05
2022-10-30T23:13:33.036Z,17.98
2022-10-30T23:23:39.054Z,17.92
2022-10-30T23:33:44.592Z,17.92
2022-10-30T23:43:50.152Z,17.88
2022-10-30T23:53:56.469Z,17.89
